sensor_id;sensor_type;location;lat;lon;timestamp;pressure;altitude;pressure_sealevel;temperature
37452;BMP280;23314;51.114;6.900;2023-05-29T04:02:33;101867.59;;;11.50
37452;BMP280;23314;51.114;6.900;2023-05-29T04:04:58;101864.16;;;11.71
37452;BMP280;23314;51.114;6.900;2023-05-29T04:07:23;101872.94;;;11.94
37452;BMP280;23314;51.114;6.900;2023-05-29T04:09:49;101879.41;;;12.14
37452;BMP280;23314;51.114;6.900;2023-05-29T04:12:14;101870.97;;;12.34
37452;BMP280;23314;51.114;6.900;2023-05-29T04:14:41;101878.19;;;12.51
37452;BMP280;23314;51.114;6.900;2023-05-29T04:17:07;101876.19;;;12.77
37452;BMP280;23314;51.114;6.900;2023-05-29T04:19:32;101880.56;;;13.24
37452;BMP280;23314;51.114;6.900;2023-05-29T04:21:57;101879.19;;;13.57
37452;BMP280;23314;51.114;6.900;2023-05-29T04:24:23;101881.56;;;13.90
37452;BMP280;23314;51.114;6.900;2023-05-29T04:26:49;101890.19;;;14.12
37452;BMP280;23314;51.114;6.900;2023-05-29T04:29:16;101887.66;;;14.32
37452;BMP280;23314;51.114;6.900;2023-05-29T04:31:42;101896.22;;;14.54
37452;BMP280;23314;51.114;6.900;2023-05-29T04:34:07;101909.09;;;14.70
37452;BMP280;23314;51.114;6.900;2023-05-29T04:36:33;101897.81;;;14.82
37452;BMP280;23314;51.114;6.900;2023-05-29T04:39:02;101901.13;;;14.94
37452;BMP280;23314;51.114;6.900;2023-05-29T04:41:28;101897.97;;;14.99
37452;BMP280;23314;51.114;6.900;2023-05-29T04:43:57;101897.13;;;15.06
37452;BMP280;23314;51.114;6.900;2023-05-29T04:46:23;101902.09;;;15.07
37452;BMP280;23314;51.114;6.900;2023-05-29T04:48:49;101905.09;;;15.13
37452;BMP280;23314;51.114;6.900;2023-05-29T04:51:18;101902.88;;;15.04
37452;BMP280;23314;51.114;6.900;2023-05-29T04:53:45;101908.09;;;14.88
37452;BMP280;23314;51.114;6.900;2023-05-29T04:56:12;101905.13;;;14.78
37452;BMP280;23314;51.114;6.900;2023-05-29T04:58:37;101911.78;;;14.70
37452;BMP280;23314;51.114;6.900;2023-05-29T05:01:02;101915.31;;;14.63
37452;BMP280;23314;51.114;6.900;2023-05-29T05:03:29;101906.19;;;14.57
37452;BMP280;23314;51.114;6.900;2023-05-29T05:05:56;101906.56;;;14.56
37452;BMP280;23314;51.114;6.900;2023-05-29T05:08:21;101914.19;;;14.61
37452;BMP280;23314;51.114;6.900;2023-05-29T05:10:47;101923.75;;;14.62
37452;BMP280;23314;51.114;6.900;2023-05-29T05:13:12;101914.56;;;14.63
37452;BMP280;23314;51.114;6.900;2023-05-29T05:15:38;101919.53;;;14.64
37452;BMP280;23314;51.114;6.900;2023-05-29T05:18:03;101923.75;;;14.62
37452;BMP280;23314;51.114;6.900;2023-05-29T05:20:28;101936.81;;;14.60
37452;BMP280;23314;51.114;6.900;2023-05-29T05:22:53;101930.75;;;14.56
37452;BMP280;23314;51.114;6.900;2023-05-29T05:25:19;101941.09;;;14.57
37452;BMP280;23314;51.114;6.900;2023-05-29T05:27:44;101941.09;;;14.57
37452;BMP280;23314;51.114;6.900;2023-05-29T05:30:10;101947.22;;;14.58
37452;BMP280;23314;51.114;6.900;2023-05-29T05:32:35;101946.84;;;14.59
37452;BMP280;23314;51.114;6.900;2023-05-29T05:35:01;101944.09;;;14.63
37452;BMP280;23314;51.114;6.900;2023-05-29T05:37:26;101952.16;;;14.63
37452;BMP280;23314;51.114;6.900;2023-05-29T05:39:51;101948.66;;;14.66
37452;BMP280;23314;51.114;6.900;2023-05-29T05:42:19;101949.78;;;14.68
37452;BMP280;23314;51.114;6.900;2023-05-29T05:44:44;101948.97;;;14.72
37452;BMP280;23314;51.114;6.900;2023-05-29T05:47:09;101949.34;;;14.74
37452;BMP280;23314;51.114;6.900;2023-05-29T05:49:35;101941.25;;;14.77
37452;BMP280;23314;51.114;6.900;2023-05-29T05:52:00;101945.44;;;14.78
37452;BMP280;23314;51.114;6.900;2023-05-29T05:54:25;101940.41;;;14.80
37452;BMP280;23314;51.114;6.900;2023-05-29T05:56:51;101934.97;;;14.88
37452;BMP280;23314;51.114;6.900;2023-05-29T05:59:16;101941.44;;;14.94
37452;BMP280;23314;51.114;6.900;2023-05-29T06:01:41;101942.97;;;14.95
37452;BMP280;23314;51.114;6.900;2023-05-29T06:04:07;101936.75;;;14.98
37452;BMP280;23314;51.114;6.900;2023-05-29T06:06:34;101943.59;;;15.02
37452;BMP280;23314;51.114;6.900;2023-05-29T06:08:59;101938.59;;;15.05
37452;BMP280;23314;51.114;6.900;2023-05-29T06:11:25;101947.31;;;15.12
37452;BMP280;23314;51.114;6.900;2023-05-29T06:13:53;101953.41;;;15.16
37452;BMP280;23314;51.114;6.900;2023-05-29T06:16:19;101948.75;;;15.20
37452;BMP280;23314;51.114;6.900;2023-05-29T06:18:44;101962.38;;;15.33
37452;BMP280;23314;51.114;6.900;2023-05-29T06:21:09;101964.13;;;15.44
37452;BMP280;23314;51.114;6.900;2023-05-29T06:23:35;101957.59;;;15.48
37452;BMP280;23314;51.114;6.900;2023-05-29T06:26:02;101959.66;;;15.61
37452;BMP280;23314;51.114;6.900;2023-05-29T06:28:28;101956.88;;;15.68
37452;BMP280;23314;51.114;6.900;2023-05-29T06:30:54;101957.91;;;15.74
37452;BMP280;23314;51.114;6.900;2023-05-29T06:33:19;101960.09;;;15.83
37452;BMP280;23314;51.114;6.900;2023-05-29T06:35:46;101957.63;;;15.92
37452;BMP280;23314;51.114;6.900;2023-05-29T06:38:11;101961.78;;;15.97
37452;BMP280;23314;51.114;6.900;2023-05-29T06:40:37;101954.75;;;16.03
37452;BMP280;23314;51.114;6.900;2023-05-29T06:43:02;101958.91;;;16.08
37452;BMP280;23314;51.114;6.900;2023-05-29T06:45:27;101959.19;;;16.13
37452;BMP280;23314;51.114;6.900;2023-05-29T06:47:52;101963.59;;;16.24
37452;BMP280;23314;51.114;6.900;2023-05-29T06:50:18;101956.44;;;16.37
37452;BMP280;23314;51.114;6.900;2023-05-29T06:52:43;101958.84;;;16.51
37452;BMP280;23314;51.114;6.900;2023-05-29T06:55:08;101955.56;;;16.60
37452;BMP280;23314;51.114;6.900;2023-05-29T06:57:34;101964.63;;;16.70
37452;BMP280;23314;51.114;6.900;2023-05-29T06:59:59;101963.44;;;16.71
37452;BMP280;23314;51.114;6.900;2023-05-29T07:02:24;101962.69;;;16.70
37452;BMP280;23314;51.114;6.900;2023-05-29T07:04:50;101956.97;;;16.68
37452;BMP280;23314;51.114;6.900;2023-05-29T07:07:15;101961.03;;;16.77
37452;BMP280;23314;51.114;6.900;2023-05-29T07:09:41;101960.78;;;16.87
37452;BMP280;23314;51.114;6.900;2023-05-29T07:12:06;101956.50;;;16.90
37452;BMP280;23314;51.114;6.900;2023-05-29T07:14:31;101958.22;;;17.00
37452;BMP280;23314;51.114;6.900;2023-05-29T07:16:57;101958.81;;;17.08
37452;BMP280;23314;51.114;6.900;2023-05-29T07:19:22;101952.91;;;17.13
37452;BMP280;23314;51.114;6.900;2023-05-29T07:21:48;101952.75;;;17.20
37452;BMP280;23314;51.114;6.900;2023-05-29T07:24:13;101949.53;;;17.26
37452;BMP280;23314;51.114;6.900;2023-05-29T07:26:38;101953.25;;;17.32
37452;BMP280;23314;51.114;6.900;2023-05-29T07:29:04;101947.78;;;17.35
37452;BMP280;23314;51.114;6.900;2023-05-29T07:31:30;101951.91;;;17.40
37452;BMP280;23314;51.114;6.900;2023-05-29T07:33:55;101955.44;;;17.53
37452;BMP280;23314;51.114;6.900;2023-05-29T07:36:21;101966.47;;;17.59
37452;BMP280;23314;51.114;6.900;2023-05-29T07:38:46;101963.94;;;17.68
37452;BMP280;23314;51.114;6.900;2023-05-29T07:41:11;101964.63;;;17.72
37452;BMP280;23314;51.114;6.900;2023-05-29T07:43:37;101970.25;;;17.78
37452;BMP280;23314;51.114;6.900;2023-05-29T07:46:03;101978.59;;;17.84
37452;BMP280;23314;51.114;6.900;2023-05-29T07:48:28;101982.03;;;17.84
37452;BMP280;23314;51.114;6.900;2023-05-29T07:50:53;101975.53;;;17.82
37452;BMP280;23314;51.114;6.900;2023-05-29T07:53:19;101980.94;;;17.82
37452;BMP280;23314;51.114;6.900;2023-05-29T07:55:44;101975.91;;;17.84
37452;BMP280;23314;51.114;6.900;2023-05-29T07:58:10;101990.72;;;17.92
37452;BMP280;23314;51.114;6.900;2023-05-29T08:00:36;101997.19;;;17.95
37452;BMP280;23314;51.114;6.900;2023-05-29T08:03:03;101993.16;;;18.03
37452;BMP280;23314;51.114;6.900;2023-05-29T08:05:28;101992.19;;;18.10
37452;BMP280;23314;51.114;6.900;2023-05-29T08:07:54;102001.28;;;18.16
37452;BMP280;23314;51.114;6.900;2023-05-29T08:10:19;102001.69;;;18.14
37452;BMP280;23314;51.114;6.900;2023-05-29T08:12:45;101998.59;;;18.16
37452;BMP280;23314;51.114;6.900;2023-05-29T08:15:10;102001.53;;;18.21
37452;BMP280;23314;51.114;6.900;2023-05-29T08:17:36;101995.59;;;18.27
37452;BMP280;23314;51.114;6.900;2023-05-29T08:20:02;102006.56;;;18.36
37452;BMP280;23314;51.114;6.900;2023-05-29T08:22:31;101992.41;;;18.45
37452;BMP280;23314;51.114;6.900;2023-05-29T08:24:56;102001.72;;;18.56
37452;BMP280;23314;51.114;6.900;2023-05-29T08:27:22;101999.91;;;18.66
37452;BMP280;23314;51.114;6.900;2023-05-29T08:29:47;101994.25;;;18.86
37452;BMP280;23314;51.114;6.900;2023-05-29T08:32:12;101991.56;;;18.99
37452;BMP280;23314;51.114;6.900;2023-05-29T08:34:38;101995.06;;;19.00
37452;BMP280;23314;51.114;6.900;2023-05-29T08:37:03;101991.34;;;19.06
37452;BMP280;23314;51.114;6.900;2023-05-29T08:39:30;101997.22;;;19.18
37452;BMP280;23314;51.114;6.900;2023-05-29T08:42:04;102000.63;;;19.31
37452;BMP280;23314;51.114;6.900;2023-05-29T08:44:33;102000.09;;;19.36
37452;BMP280;23314;51.114;6.900;2023-05-29T08:47:01;102006.47;;;19.42
37452;BMP280;23314;51.114;6.900;2023-05-29T08:49:29;101998.88;;;19.50
37452;BMP280;23314;51.114;6.900;2023-05-29T08:52:10;102003.97;;;19.48
37452;BMP280;23314;51.114;6.900;2023-05-29T08:54:37;102008.25;;;19.58
37452;BMP280;23314;51.114;6.900;2023-05-29T08:57:03;102014.63;;;19.65
37452;BMP280;23314;51.114;6.900;2023-05-29T08:59:30;102005.50;;;19.71
37452;BMP280;23314;51.114;6.900;2023-05-29T09:01:56;102010.25;;;19.80
37452;BMP280;23314;51.114;6.900;2023-05-29T09:04:22;101999.97;;;19.75
37452;BMP280;23314;51.114;6.900;2023-05-29T09:06:48;102004.19;;;19.76
37452;BMP280;23314;51.114;6.900;2023-05-29T09:09:14;101983.63;;;19.78
37452;BMP280;23314;51.114;6.900;2023-05-29T09:11:39;101997.16;;;19.78
37452;BMP280;23314;51.114;6.900;2023-05-29T09:14:05;101999.63;;;19.86
37452;BMP280;23314;51.114;6.900;2023-05-29T09:16:30;101986.63;;;20.03
37452;BMP280;23314;51.114;6.900;2023-05-29T09:19:05;101994.25;;;20.17
37452;BMP280;23314;51.114;6.900;2023-05-29T09:21:33;101996.13;;;20.29
37452;BMP280;23314;51.114;6.900;2023-05-29T09:24:03;102002.16;;;20.34
37452;BMP280;23314;51.114;6.900;2023-05-29T09:26:31;101993.91;;;20.37
37452;BMP280;23314;51.114;6.900;2023-05-29T09:28:57;101992.91;;;20.44
37452;BMP280;23314;51.114;6.900;2023-05-29T09:31:22;102002.69;;;20.51
37452;BMP280;23314;51.114;6.900;2023-05-29T09:33:49;102008.91;;;20.60
37452;BMP280;23314;51.114;6.900;2023-05-29T09:36:23;101998.44;;;20.72
37452;BMP280;23314;51.114;6.900;2023-05-29T09:38:50;102014.41;;;20.70
37452;BMP280;23314;51.114;6.900;2023-05-29T09:41:23;102012.56;;;20.67
37452;BMP280;23314;51.114;6.900;2023-05-29T09:43:49;102010.50;;;20.71
37452;BMP280;23314;51.114;6.900;2023-05-29T09:46:15;102024.06;;;20.71
37452;BMP280;23314;51.114;6.900;2023-05-29T09:48:42;102018.44;;;20.65
37452;BMP280;23314;51.114;6.900;2023-05-29T09:51:19;102032.47;;;20.73
37452;BMP280;23314;51.114;6.900;2023-05-29T09:53:45;102012.91;;;20.78
37452;BMP280;23314;51.114;6.900;2023-05-29T09:56:12;102013.53;;;20.82
37452;BMP280;23314;51.114;6.900;2023-05-29T09:58:41;102016.13;;;20.95
37452;BMP280;23314;51.114;6.900;2023-05-29T10:01:12;102010.25;;;21.06
37452;BMP280;23314;51.114;6.900;2023-05-29T10:03:37;102012.97;;;21.06
37452;BMP280;23314;51.114;6.900;2023-05-29T10:06:04;102008.94;;;21.10
37452;BMP280;23314;51.114;6.900;2023-05-29T10:08:31;102014.19;;;21.14
37452;BMP280;23314;51.114;6.900;2023-05-29T10:11:00;102013.75;;;21.15
37452;BMP280;23314;51.114;6.900;2023-05-29T10:13:28;102004.41;;;21.07
37452;BMP280;23314;51.114;6.900;2023-05-29T10:15:57;101994.16;;;21.11
37452;BMP280;23314;51.114;6.900;2023-05-29T10:18:26;102014.53;;;21.16
37452;BMP280;23314;51.114;6.900;2023-05-29T10:20:54;102004.41;;;21.07
37452;BMP280;23314;51.114;6.900;2023-05-29T10:23:24;102003.50;;;21.10
37452;BMP280;23314;51.114;6.900;2023-05-29T10:25:53;102007.28;;;21.22
37452;BMP280;23314;51.114;6.900;2023-05-29T10:28:22;102004.16;;;21.33
37452;BMP280;23314;51.114;6.900;2023-05-29T10:30:53;101999.91;;;21.32
37452;BMP280;23314;51.114;6.900;2023-05-29T10:33:35;101987.69;;;21.37
37452;BMP280;23314;51.114;6.900;2023-05-29T10:36:22;101991.78;;;21.41
37452;BMP280;23314;51.114;6.900;2023-05-29T10:38:51;101997.06;;;21.54
37452;BMP280;23314;51.114;6.900;2023-05-29T10:41:28;101993.28;;;21.51
37452;BMP280;23314;51.114;6.900;2023-05-29T10:43:55;101992.38;;;21.45
37452;BMP280;23314;51.114;6.900;2023-05-29T10:46:21;101986.34;;;21.50
37452;BMP280;23314;51.114;6.900;2023-05-29T10:48:49;101985.75;;;21.56
37452;BMP280;23314;51.114;6.900;2023-05-29T10:51:28;101988.16;;;21.63
37452;BMP280;23314;51.114;6.900;2023-05-29T10:53:53;101984.81;;;21.68
37452;BMP280;23314;51.114;6.900;2023-05-29T10:56:23;102002.03;;;21.74
37452;BMP280;23314;51.114;6.900;2023-05-29T10:58:54;101990.84;;;21.81
37452;BMP280;23314;51.114;6.900;2023-05-29T11:01:23;101994.75;;;21.90
37452;BMP280;23314;51.114;6.900;2023-05-29T11:03:54;101986.13;;;22.00
37452;BMP280;23314;51.114;6.900;2023-05-29T11:06:35;101975.41;;;22.06
37452;BMP280;23314;51.114;6.900;2023-05-29T11:09:00;101972.34;;;22.13
37452;BMP280;23314;51.114;6.900;2023-05-29T11:11:33;101982.28;;;22.26
37452;BMP280;23314;51.114;6.900;2023-05-29T11:14:04;101975.03;;;22.32
37452;BMP280;23314;51.114;6.900;2023-05-29T11:19:04;101964.00;;;22.60
37452;BMP280;23314;51.114;6.900;2023-05-29T11:24:04;101961.13;;;22.63
37452;BMP280;23314;51.114;6.900;2023-05-29T11:26:33;101959.22;;;22.69
37452;BMP280;23314;51.114;6.900;2023-05-29T11:29:01;101954.78;;;22.81
37452;BMP280;23314;51.114;6.900;2023-05-29T11:31:28;101962.38;;;22.77
37452;BMP280;23314;51.114;6.900;2023-05-29T11:33:59;101964.91;;;22.81
37452;BMP280;23314;51.114;6.900;2023-05-29T11:36:25;101964.91;;;22.81
37452;BMP280;23314;51.114;6.900;2023-05-29T11:38:51;101973.56;;;22.79
37452;BMP280;23314;51.114;6.900;2023-05-29T11:41:17;101962.19;;;22.81
37452;BMP280;23314;51.114;6.900;2023-05-29T11:43:42;101957.91;;;22.89
37452;BMP280;23314;51.114;6.900;2023-05-29T11:46:18;101963.13;;;23.02
37452;BMP280;23314;51.114;6.900;2023-05-29T11:48:47;101957.19;;;23.03
37452;BMP280;23314;51.114;6.900;2023-05-29T11:51:13;101962.88;;;23.15
37452;BMP280;23314;51.114;6.900;2023-05-29T11:53:42;101957.44;;;23.15
37452;BMP280;23314;51.114;6.900;2023-05-29T11:56:11;101964.66;;;23.18
37452;BMP280;23314;51.114;6.900;2023-05-29T11:58:38;101960.69;;;23.19
37452;BMP280;23314;51.114;6.900;2023-05-29T12:01:04;101968.53;;;23.26
37452;BMP280;23314;51.114;6.900;2023-05-29T12:03:29;101955.75;;;23.32
37452;BMP280;23314;51.114;6.900;2023-05-29T12:05:55;101965.16;;;23.31
37452;BMP280;23314;51.114;6.900;2023-05-29T12:08:22;101962.97;;;23.20
37452;BMP280;23314;51.114;6.900;2023-05-29T12:10:49;101957.44;;;23.30
37452;BMP280;23314;51.114;6.900;2023-05-29T12:13:14;101943.94;;;23.35
37452;BMP280;23314;51.114;6.900;2023-05-29T12:15:43;101956.78;;;23.50
37452;BMP280;23314;51.114;6.900;2023-05-29T12:18:09;101952.84;;;23.51
37452;BMP280;23314;51.114;6.900;2023-05-29T12:20:35;101948.72;;;23.55
37452;BMP280;23314;51.114;6.900;2023-05-29T12:23:01;101950.34;;;23.62
37452;BMP280;23314;51.114;6.900;2023-05-29T12:25:27;101955.13;;;23.67
37452;BMP280;23314;51.114;6.900;2023-05-29T12:27:55;101952.84;;;23.51
37452;BMP280;23314;51.114;6.900;2023-05-29T12:30:22;101961.03;;;23.51
37452;BMP280;23314;51.114;6.900;2023-05-29T12:32:49;101966.66;;;23.47
37452;BMP280;23314;51.114;6.900;2023-05-29T12:35:21;101964.31;;;23.40
37452;BMP280;23314;51.114;6.900;2023-05-29T12:37:47;101955.69;;;23.41
37452;BMP280;23314;51.114;6.900;2023-05-29T12:40:17;101955.59;;;23.51
37452;BMP280;23314;51.114;6.900;2023-05-29T12:42:43;101972.03;;;23.56
37452;BMP280;23314;51.114;6.900;2023-05-29T12:45:08;101946.78;;;23.56
37452;BMP280;23314;51.114;6.900;2023-05-29T12:47:35;101957.00;;;23.61
37452;BMP280;23314;51.114;6.900;2023-05-29T12:50:20;101963.84;;;23.56
37452;BMP280;23314;51.114;6.900;2023-05-29T12:52:52;101959.50;;;23.50
37452;BMP280;23314;51.114;6.900;2023-05-29T12:55:18;101957.94;;;23.58
37452;BMP280;23314;51.114;6.900;2023-05-29T12:57:43;101950.22;;;23.56
37452;BMP280;23314;51.114;6.900;2023-05-29T13:00:11;101962.16;;;23.59
37452;BMP280;23314;51.114;6.900;2023-05-29T13:02:37;101950.50;;;23.58
37452;BMP280;23314;51.114;6.900;2023-05-29T13:05:02;101959.63;;;23.70
37452;BMP280;23314;51.114;6.900;2023-05-29T13:07:27;101962.53;;;23.82
37452;BMP280;23314;51.114;6.900;2023-05-29T13:09:53;101963.69;;;23.75
37452;BMP280;23314;51.114;6.900;2023-05-29T13:12:18;101956.78;;;23.79
37452;BMP280;23314;51.114;6.900;2023-05-29T13:14:44;101956.31;;;23.81
37452;BMP280;23314;51.114;6.900;2023-05-29T13:17:09;101969.41;;;23.77
37452;BMP280;23314;51.114;6.900;2023-05-29T13:19:34;101961.22;;;23.77
37452;BMP280;23314;51.114;6.900;2023-05-29T13:21:59;101965.25;;;23.82
37452;BMP280;23314;51.114;6.900;2023-05-29T13:24:25;101962.16;;;23.89
37452;BMP280;23314;51.114;6.900;2023-05-29T13:26:50;101967.66;;;24.09
37452;BMP280;23314;51.114;6.900;2023-05-29T13:29:16;101961.91;;;24.22
37452;BMP280;23314;51.114;6.900;2023-05-29T13:31:41;101961.59;;;24.20
37452;BMP280;23314;51.114;6.900;2023-05-29T13:34:06;101955.31;;;24.14
37452;BMP280;23314;51.114;6.900;2023-05-29T13:36:32;101952.91;;;24.16
37452;BMP280;23314;51.114;6.900;2023-05-29T13:38:57;101955.88;;;24.18
37452;BMP280;23314;51.114;6.900;2023-05-29T13:41:22;101948.81;;;24.26
37452;BMP280;23314;51.114;6.900;2023-05-29T13:43:48;101955.47;;;24.25
37452;BMP280;23314;51.114;6.900;2023-05-29T13:46:13;101949.06;;;24.28
37452;BMP280;23314;51.114;6.900;2023-05-29T13:48:38;101949.22;;;24.19
37452;BMP280;23314;51.114;6.900;2023-05-29T13:51:03;101964.94;;;24.09
37452;BMP280;23314;51.114;6.900;2023-05-29T13:53:29;101958.72;;;24.09
37452;BMP280;23314;51.114;6.900;2023-05-29T13:55:54;101953.75;;;24.07
37452;BMP280;23314;51.114;6.900;2023-05-29T13:58:19;101954.75;;;24.10
37452;BMP280;23314;51.114;6.900;2023-05-29T14:00:45;101947.66;;;24.12
37452;BMP280;23314;51.114;6.900;2023-05-29T14:03:11;101946.66;;;24.15
37452;BMP280;23314;51.114;6.900;2023-05-29T14:05:36;101944.06;;;24.42
37452;BMP280;23314;51.114;6.900;2023-05-29T14:10:27;101936.75;;;24.54
37452;BMP280;23314;51.114;6.900;2023-05-29T14:12:52;101947.81;;;24.44
37452;BMP280;23314;51.114;6.900;2023-05-29T14:15:17;101937.84;;;24.41
37452;BMP280;23314;51.114;6.900;2023-05-29T14:17:42;101942.59;;;24.46
37452;BMP280;23314;51.114;6.900;2023-05-29T14:20:08;101936.16;;;24.44
37452;BMP280;23314;51.114;6.900;2023-05-29T14:22:34;101931.28;;;24.54
37452;BMP280;23314;51.114;6.900;2023-05-29T14:25:01;101943.78;;;24.60
37452;BMP280;23314;51.114;6.900;2023-05-29T14:27:26;101934.50;;;24.52
37452;BMP280;23314;51.114;6.900;2023-05-29T14:29:52;101943.91;;;24.30
37452;BMP280;23314;51.114;6.900;2023-05-29T14:32:17;101938.88;;;24.23
37452;BMP280;23314;51.114;6.900;2023-05-29T14:34:42;101935.94;;;24.27
37452;BMP280;23314;51.114;6.900;2023-05-29T14:37:07;101928.75;;;24.29
37452;BMP280;23314;51.114;6.900;2023-05-29T14:39:33;101935.59;;;24.40
37452;BMP280;23314;51.114;6.900;2023-05-29T14:41:58;101946.25;;;24.38
37452;BMP280;23314;51.114;6.900;2023-05-29T14:44:23;101950.13;;;24.31
37452;BMP280;23314;51.114;6.900;2023-05-29T14:46:49;101938.56;;;24.21
37452;BMP280;23314;51.114;6.900;2023-05-29T14:49:14;101949.47;;;24.21
37452;BMP280;23314;51.114;6.900;2023-05-29T14:51:39;101948.44;;;24.19
37452;BMP280;23314;51.114;6.900;2023-05-29T14:54:05;101948.09;;;24.11
37452;BMP280;23314;51.114;6.900;2023-05-29T14:56:31;101934.09;;;24.03
37452;BMP280;23314;51.114;6.900;2023-05-29T14:58:56;101935.63;;;24.04
37452;BMP280;23314;51.114;6.900;2023-05-29T15:01:21;101934.66;;;24.07
37452;BMP280;23314;51.114;6.900;2023-05-29T15:03:47;101933.25;;;24.12
37452;BMP280;23314;51.114;6.900;2023-05-29T15:06:13;101924.69;;;24.19
37452;BMP280;23314;51.114;6.900;2023-05-29T15:08:39;101920.56;;;24.29
37452;BMP280;23314;51.114;6.900;2023-05-29T15:11:05;101922.69;;;24.40
37452;BMP280;23314;51.114;6.900;2023-05-29T15:13:31;101921.69;;;24.38
37452;BMP280;23314;51.114;6.900;2023-05-29T15:15:57;101927.50;;;24.45
37452;BMP280;23314;51.114;6.900;2023-05-29T15:18:26;101935.66;;;24.45
37452;BMP280;23314;51.114;6.900;2023-05-29T15:20:52;101929.53;;;24.30
37452;BMP280;23314;51.114;6.900;2023-05-29T15:23:18;101946.19;;;24.17
37452;BMP280;23314;51.114;6.900;2023-05-29T15:25:44;101936.84;;;23.88
37452;BMP280;23314;51.114;6.900;2023-05-29T15:28:09;101938.28;;;23.69
37452;BMP280;23314;51.114;6.900;2023-05-29T15:30:35;101933.16;;;23.56
37452;BMP280;23314;51.114;6.900;2023-05-29T15:33:00;101937.84;;;23.40
37452;BMP280;23314;51.114;6.900;2023-05-29T15:35:25;101947.03;;;23.28
37452;BMP280;23314;51.114;6.900;2023-05-29T15:37:51;101940.03;;;23.12
37452;BMP280;23314;51.114;6.900;2023-05-29T15:40:16;101943.50;;;22.98
37452;BMP280;23314;51.114;6.900;2023-05-29T15:42:41;101939.03;;;22.85
37452;BMP280;23314;51.114;6.900;2023-05-29T15:45:07;101947.16;;;22.70
37452;BMP280;23314;51.114;6.900;2023-05-29T15:47:32;101936.63;;;22.63
37452;BMP280;23314;51.114;6.900;2023-05-29T15:49:57;101946.34;;;22.55
37452;BMP280;23314;51.114;6.900;2023-05-29T15:52:24;101942.44;;;22.47
37452;BMP280;23314;51.114;6.900;2023-05-29T15:54:49;101949.00;;;22.40
37452;BMP280;23314;51.114;6.900;2023-05-29T15:57:15;101933.88;;;22.39
37452;BMP280;23314;51.114;6.900;2023-05-29T15:59:40;101934.16;;;22.41
37452;BMP280;23314;51.114;6.900;2023-05-29T16:02:05;101931.13;;;22.48
37452;BMP280;23314;51.114;6.900;2023-05-29T16:04:31;101931.41;;;22.50
37452;BMP280;23314;51.114;6.900;2023-05-29T16:06:57;101939.72;;;22.47
37452;BMP280;23314;51.114;6.900;2023-05-29T16:09:22;101937.00;;;22.47
37452;BMP280;23314;51.114;6.900;2023-05-29T16:11:48;101936.88;;;22.41
37452;BMP280;23314;51.114;6.900;2023-05-29T16:14:13;101932.69;;;22.40
37452;BMP280;23314;51.114;6.900;2023-05-29T16:16:39;101930.66;;;22.50
37452;BMP280;23314;51.114;6.900;2023-05-29T16:19:04;101942.81;;;22.64
37452;BMP280;23314;51.114;6.900;2023-05-29T16:21:31;101941.88;;;22.67
37452;BMP280;23314;51.114;6.900;2023-05-29T16:23:58;101925.81;;;22.78
37452;BMP280;23314;51.114;6.900;2023-05-29T16:26:25;101954.25;;;22.92
37452;BMP280;23314;51.114;6.900;2023-05-29T16:28:52;101937.88;;;23.01
37452;BMP280;23314;51.114;6.900;2023-05-29T16:31:18;101942.19;;;23.08
37452;BMP280;23314;51.114;6.900;2023-05-29T16:33:43;101931.31;;;23.23
37452;BMP280;23314;51.114;6.900;2023-05-29T16:36:08;101941.69;;;23.49
37452;BMP280;23314;51.114;6.900;2023-05-29T16:38:34;101946.25;;;23.72
37452;BMP280;23314;51.114;6.900;2023-05-29T16:40:59;101955.44;;;24.05
37452;BMP280;23314;51.114;6.900;2023-05-29T16:43:25;101933.81;;;24.57
37452;BMP280;23314;51.114;6.900;2023-05-29T16:45:50;101940.69;;;25.20
37452;BMP280;23314;51.114;6.900;2023-05-29T16:48:16;101939.09;;;25.71
37452;BMP280;23314;51.114;6.900;2023-05-29T16:50:41;101935.16;;;26.21
37452;BMP280;23314;51.114;6.900;2023-05-29T16:53:06;101927.88;;;26.84
37452;BMP280;23314;51.114;6.900;2023-05-29T16:55:32;101946.78;;;26.99
37452;BMP280;23314;51.114;6.900;2023-05-29T16:57:57;101925.16;;;27.01
37452;BMP280;23314;51.114;6.900;2023-05-29T17:00:22;101936.81;;;26.96
37452;BMP280;23314;51.114;6.900;2023-05-29T17:02:49;101935.34;;;27.29
37452;BMP280;23314;51.114;6.900;2023-05-29T17:05:15;101952.50;;;27.69
37452;BMP280;23314;51.114;6.900;2023-05-29T17:07:41;101940.28;;;27.70
37452;BMP280;23314;51.114;6.900;2023-05-29T17:10:06;101932.56;;;27.57
37452;BMP280;23314;51.114;6.900;2023-05-29T17:12:32;101947.06;;;27.35
37452;BMP280;23314;51.114;6.900;2023-05-29T17:14:57;101934.38;;;27.20
37452;BMP280;23314;51.114;6.900;2023-05-29T17:17:23;101925.63;;;27.33
37452;BMP280;23314;51.114;6.900;2023-05-29T17:19:48;101946.53;;;27.42
37452;BMP280;23314;51.114;6.900;2023-05-29T17:22:13;101933.84;;;27.39
37452;BMP280;23314;51.114;6.900;2023-05-29T17:24:39;101928.13;;;27.26
37452;BMP280;23314;51.114;6.900;2023-05-29T17:27:04;101933.34;;;27.18
37452;BMP280;23314;51.114;6.900;2023-05-29T17:29:30;101937.09;;;27.26
37452;BMP280;23314;51.114;6.900;2023-05-29T17:31:55;101929.38;;;27.25
37452;BMP280;23314;51.114;6.900;2023-05-29T17:34:20;101944.31;;;27.12
37452;BMP280;23314;51.114;6.900;2023-05-29T17:36:46;101944.06;;;26.88
37452;BMP280;23314;51.114;6.900;2023-05-29T17:39:11;101957.94;;;26.67
37452;BMP280;23314;51.114;6.900;2023-05-29T17:41:36;101944.19;;;26.44
37452;BMP280;23314;51.114;6.900;2023-05-29T17:44:02;101956.34;;;26.32
37452;BMP280;23314;51.114;6.900;2023-05-29T17:46:28;101948.56;;;26.19
37452;BMP280;23314;51.114;6.900;2023-05-29T17:48:53;101955.78;;;26.22
37452;BMP280;23314;51.114;6.900;2023-05-29T17:51:19;101966.50;;;26.31
37452;BMP280;23314;51.114;6.900;2023-05-29T17:53:47;101958.09;;;26.35
37452;BMP280;23314;51.114;6.900;2023-05-29T17:56:12;101960.78;;;26.24
37452;BMP280;23314;51.114;6.900;2023-05-29T17:58:38;101962.97;;;26.14
37452;BMP280;23314;51.114;6.900;2023-05-29T18:01:03;101964.75;;;26.23